Middle Grove, NY (12850)

11:16 AM EDT on August 22, 2014 (GMT -0400)
In the middle of a forest | Change Station
CLOSE
Current Station
Personal Weather Station
Location: Middle Grove, NY
Elevation: 1319 ft
Nearby Weather Stations

Elev 1319 ft 43.09 °N, 74.00 °W | Updated 41 seconds ago

Overcast
Overcast
60.0 °F
Feels Like 60.0 °F
N
0.0
Wind Variable Wind from East
Gusts 3.0 mph

Today
High -- | Low -- °F
--% Chance of Precip.
Yesterday
High -- | Low -- °F
Precip. -- in
6:09 AM 7:47 PM
Waning Crescent, 8% visible
Pressure 30.06 in
Visibility 10.0 miles
Clouds Few 1200 ft
Overcast 2300 ft
Dew Point 57 °F
Humidity 89%
Rainfall 0.15 in
Snow Depth Not available.
UV 2 out of 12
Pollen 3.80 out of 12
Ozone Good
PM2.5 Moderate
Flu Activity Not available.
METAR KALB 221451Z 14004KT 10SM FEW012 OVC023 19/16 A3007 RMK AO2 SLP180 T01940161 51012

More Conditions Fewer Conditions

Pressure 30.06 in
Visibility 10.0 miles
Clouds Few 1200 ft
Overcast 2300 ft
Dew Point 57 °F
Humidity 89%
Rainfall 0.15 in
Snow Depth Not available.
UV 2 out of 12
Pollen 3.80 out of 12
Ozone Good
PM2.5 Moderate
Flu Activity Not available.
METAR KALB 221451Z 14004KT 10SM FEW012 OVC023 19/16 A3007 RMK AO2 SLP180 T01940161 51012

More Conditions Fewer Conditions

10-Day Weather Forecast

Almanac

Astronomy

Aug. 22, 2014 Rise Set
Actual Time 6:09 AM EDT 7:47 PM EDT
Civil Twilight 5:39 AM EDT 8:17 PM EDT
Nautical Twilight 5:02 AM EDT 8:53 PM EDT
Astronomical Twilight 4:23 AM EDT 9:32 PM EDT
Moon 3:27 AM EDT 5:55 PM EDT
Length of Visible Light 14h 38m
Length of Day
13h 38m
Tomorrow will be 2m 43s shorter.
Waning Crescent, 8% of the Moon is Illuminated
Today
Waning Crescent
Aug 25
New
Sep 2
First Quarter
Sep 8
Full
Sep 15
Last Quarter

Today's Extremes

State Highs State Lows

Community

WunderPhotos

Upload Photos

1,746,187 photos uploaded!

WunderBlogs® & News

Nearby

Air Quality

  Air Quality AQ Index Pollutant
Yesterday Good
OZONE
Yesterday Good
PM2.5
Current Moderate
PM2.5
Current Good
OZONE
Friday Good
PM2.5
Friday Good
OZONE

Snow Depth

Station Depth Elevation
No new snow has been reported.

Earthquake Activity

City Distance Mag. Time & Date
No recent earthquake activity has been reported nearby.
Minimum magnitude displayed is 2.5.

Coastal Water Temperatures

Place Temperature
No Stations Reporting

Nearby Weather Stations